createdAt,value
2022-10-23T00:00:27.757Z,98095.38
2022-10-23T00:02:59.556Z,98096.03
2022-10-23T00:05:30.018Z,98086.06
2022-10-23T00:08:01.993Z,98088.84
2022-10-23T00:10:33.382Z,98078.69
2022-10-23T00:13:02.943Z,98087.00
2022-10-23T00:15:32.583Z,98086.88
2022-10-23T00:18:01.996Z,98070.38
2022-10-23T00:20:31.463Z,98081.22
2022-10-23T00:23:01.269Z,98085.16
2022-10-23T00:25:32.724Z,98087.88
2022-10-23T00:28:02.162Z,98083.03
2022-10-23T00:30:31.375Z,98075.63
2022-10-23T00:33:00.770Z,98081.66
2022-10-23T00:35:30.625Z,98072.22
2022-10-23T00:38:00.488Z,98078.97
2022-10-23T00:40:31.235Z,98066.22
2022-10-23T00:43:00.554Z,98069.38
2022-10-23T00:45:33.329Z,98075.19
2022-10-23T00:48:02.977Z,98076.69
2022-10-23T00:50:33.786Z,98063.06
2022-10-23T00:53:04.926Z,98057.72
2022-10-23T00:55:36.081Z,98062.34
2022-10-23T00:58:05.477Z,98064.69
2022-10-23T01:00:45.198Z,98068.88
2022-10-23T01:03:15.443Z,98070.81
2022-10-23T01:05:50.273Z,98077.66
2022-10-23T01:08:24.779Z,98079.06
2022-10-23T01:10:58.826Z,98077.59
2022-10-23T01:13:36.092Z,98068.28
2022-10-23T01:16:12.882Z,98065.53
2022-10-23T01:18:46.993Z,98066.72
2022-10-23T01:21:22.372Z,98069.56
2022-10-23T01:24:11.184Z,98062.84
2022-10-23T01:26:58.875Z,98073.72
2022-10-23T01:29:34.916Z,98081.03
2022-10-23T01:32:09.252Z,98079.22
2022-10-23T01:34:44.114Z,98077.66
2022-10-23T01:37:15.451Z,98077.56
2022-10-23T01:39:49.371Z,98076.97
2022-10-23T01:42:22.334Z,98079.38
2022-10-23T01:44:56.959Z,98081.09
2022-10-23T01:47:29.946Z,98065.69
2022-10-23T01:50:00.180Z,98070.41
2022-10-23T01:52:29.559Z,98066.72
2022-10-23T01:55:02.471Z,98063.50
2022-10-23T01:57:33.325Z,98069.59
2022-10-23T02:00:07.441Z,98064.56
2022-10-23T02:02:38.856Z,98063.66
2022-10-23T02:05:11.876Z,98061.38
2022-10-23T02:07:41.542Z,98060.09
2022-10-23T02:10:12.002Z,98061.28
2022-10-23T02:12:47.710Z,98068.97
2022-10-23T02:15:22.910Z,98068.91
2022-10-23T02:18:02.435Z,98071.38
2022-10-23T02:20:38.255Z,98065.22
2022-10-23T02:23:15.954Z,98059.78
2022-10-23T02:25:50.469Z,98067.53
2022-10-23T02:28:25.194Z,98063.88
2022-10-23T02:30:58.807Z,98064.47
2022-10-23T02:33:29.538Z,98054.97
2022-10-23T02:35:58.957Z,98054.00
2022-10-23T02:38:32.649Z,98059.56
2022-10-23T02:41:11.010Z,98055.13
2022-10-23T02:43:45.283Z,98047.19
2022-10-23T02:46:22.465Z,98052.91
2022-10-23T02:48:57.699Z,98048.63
2022-10-23T02:51:32.918Z,98046.94
2022-10-23T02:54:07.899Z,98049.53
2022-10-23T02:56:44.250Z,98042.38
2022-10-23T02:59:18.933Z,98056.81
2022-10-23T03:01:52.098Z,98046.75
2022-10-23T03:04:24.938Z,98058.09
2022-10-23T03:06:54.756Z,98059.41
2022-10-23T03:09:24.327Z,98071.53
2022-10-23T03:11:53.595Z,98064.53
2022-10-23T03:14:23.171Z,98071.16
2022-10-23T03:16:54.141Z,98072.47
2022-10-23T03:19:23.783Z,98072.34
2022-10-23T03:21:52.694Z,98061.97
2022-10-23T03:24:21.790Z,98067.91
2022-10-23T03:26:51.171Z,98068.28
2022-10-23T03:29:20.546Z,98065.44
2022-10-23T03:31:49.738Z,98068.56
2022-10-23T03:34:20.673Z,98071.69
2022-10-23T03:36:50.207Z,98066.16
2022-10-23T03:39:19.929Z,98066.16
2022-10-23T03:41:49.274Z,98057.31
2022-10-23T03:44:18.840Z,98056.53
2022-10-23T03:46:48.058Z,98060.66
2022-10-23T03:49:17.032Z,98059.38
2022-10-23T03:51:52.143Z,98067.06
2022-10-23T03:54:23.196Z,98050.56
2022-10-23T03:56:56.508Z,98053.63
2022-10-23T03:59:27.182Z,98048.28
2022-10-23T04:01:56.750Z,98044.41
2022-10-23T04:04:26.400Z,98044.97
2022-10-23T04:06:57.006Z,98039.28
2022-10-23T04:09:26.629Z,98031.81
2022-10-23T04:11:57.667Z,98036.72
2022-10-23T04:14:28.715Z,98043.09
2022-10-23T04:16:58.111Z,98035.06
2022-10-23T04:19:27.527Z,98038.97
2022-10-23T04:21:58.938Z,98041.56
2022-10-23T04:24:28.753Z,98042.13
2022-10-23T04:26:58.202Z,98036.78
2022-10-23T04:29:29.539Z,98029.69
2022-10-23T04:31:59.539Z,98033.13
2022-10-23T04:34:29.090Z,98029.53
2022-10-23T04:37:00.837Z,98039.81
2022-10-23T04:39:30.294Z,98024.72
2022-10-23T04:41:59.710Z,98030.69
2022-10-23T04:44:28.723Z,98031.44
2022-10-23T04:46:57.859Z,98023.66
2022-10-23T04:49:27.427Z,98018.13
2022-10-23T04:51:56.763Z,98019.88
2022-10-23T04:54:27.601Z,98019.78
2022-10-23T04:56:57.292Z,98015.13
2022-10-23T04:59:27.051Z,98021.56
2022-10-23T05:01:57.217Z,98016.81
2022-10-23T05:04:26.868Z,98014.50
2022-10-23T05:06:56.577Z,98014.47
2022-10-23T05:09:27.611Z,98010.59
2022-10-23T05:11:56.904Z,98012.03
2022-10-23T05:14:27.194Z,98014.47
2022-10-23T05:17:01.684Z,98017.53
2022-10-23T05:19:36.578Z,98017.25
2022-10-23T05:22:07.081Z,98020.75
2022-10-23T05:24:38.114Z,98018.75
2022-10-23T05:27:11.683Z,98020.22
2022-10-23T05:29:41.972Z,98019.59
2022-10-23T05:32:25.409Z,98026.09
2022-10-23T05:34:55.860Z,98021.63
2022-10-23T05:37:25.168Z,98018.81
2022-10-23T05:39:56.348Z,98017.53
2022-10-23T05:42:25.762Z,98015.19
2022-10-23T05:44:55.767Z,98021.25
2022-10-23T05:47:25.139Z,98030.75
2022-10-23T05:49:54.502Z,98031.59
2022-10-23T05:52:24.313Z,98033.56
2022-10-23T05:54:57.224Z,98033.91
2022-10-23T05:57:26.576Z,98030.00
2022-10-23T05:59:55.917Z,98026.97
2022-10-23T06:02:25.291Z,98026.91
2022-10-23T06:04:57.356Z,98029.97
2022-10-23T06:07:35.148Z,98027.53
2022-10-23T06:10:12.426Z,98038.84
2022-10-23T06:12:41.983Z,98033.56
2022-10-23T06:15:12.820Z,98037.66
2022-10-23T06:17:42.718Z,98046.19
2022-10-23T06:20:13.567Z,98039.81
2022-10-23T06:22:43.773Z,98036.00
2022-10-23T06:25:15.492Z,98038.13
2022-10-23T06:27:47.664Z,98039.97
2022-10-23T06:30:43.300Z,98046.34
2022-10-23T06:33:12.992Z,98053.84
2022-10-23T06:35:46.899Z,98055.78
2022-10-23T06:38:16.795Z,98054.34
2022-10-23T06:40:53.185Z,98060.97
2022-10-23T06:43:23.188Z,98061.81
2022-10-23T06:45:52.835Z,98071.00
2022-10-23T06:48:22.097Z,98071.34
2022-10-23T06:50:52.872Z,98071.38
2022-10-23T06:53:24.996Z,98071.09
2022-10-23T06:56:01.294Z,98058.53
2022-10-23T06:58:31.285Z,98056.03
2022-10-23T07:01:04.073Z,98050.66
2022-10-23T07:03:34.973Z,98045.97
2022-10-23T07:06:05.070Z,98067.81
2022-10-23T07:08:34.677Z,98067.22
2022-10-23T07:11:07.808Z,98081.94
2022-10-23T07:13:38.643Z,98085.03
2022-10-23T07:16:12.315Z,98078.06
2022-10-23T07:18:52.910Z,98074.22
2022-10-23T07:21:23.415Z,98070.25
2022-10-23T07:24:01.922Z,98083.88
2022-10-23T07:26:45.012Z,98077.63
2022-10-23T07:29:19.116Z,98079.56
2022-10-23T07:31:49.123Z,98085.03
2022-10-23T07:34:20.061Z,98087.75
2022-10-23T07:36:52.669Z,98089.31
2022-10-23T07:39:24.939Z,98088.88
2022-10-23T07:41:56.117Z,98083.50
2022-10-23T07:44:27.753Z,98080.38
2022-10-23T07:46:57.499Z,98067.94
2022-10-23T07:49:27.103Z,98069.19
2022-10-23T07:51:58.826Z,98065.38
2022-10-23T07:54:29.091Z,98061.50
2022-10-23T07:57:00.900Z,98055.34
2022-10-23T07:59:33.377Z,98059.19
2022-10-23T08:02:05.149Z,98064.72
2022-10-23T08:04:34.496Z,98059.09
2022-10-23T08:07:04.229Z,98062.28
2022-10-23T08:09:34.598Z,98059.84
2022-10-23T08:12:05.740Z,98055.81
2022-10-23T08:14:35.061Z,98053.91
2022-10-23T08:17:05.394Z,98049.34
2022-10-23T08:19:36.859Z,98052.03
2022-10-23T08:22:06.357Z,98059.59
2022-10-23T08:24:35.713Z,98053.72
2022-10-23T08:27:07.103Z,98048.97
2022-10-23T08:29:36.691Z,98051.28
2022-10-23T08:32:06.434Z,98051.53
2022-10-23T08:34:37.956Z,98030.31
2022-10-23T08:37:07.910Z,98032.66
2022-10-23T08:39:37.614Z,98033.56
2022-10-23T08:42:21.492Z,98024.16
2022-10-23T08:45:00.851Z,98026.66
2022-10-23T08:47:37.657Z,98029.16
2022-10-23T08:50:36.283Z,98031.13
2022-10-23T08:54:00.791Z,98034.69
2022-10-23T08:57:43.962Z,98042.66
2022-10-23T09:04:55.615Z,98060.84
2022-10-23T09:07:34.175Z,98051.44
2022-10-23T09:10:17.237Z,98056.06
2022-10-23T09:12:48.377Z,98053.72
2022-10-23T09:15:31.192Z,98044.34
2022-10-23T09:18:04.865Z,98049.78
2022-10-23T09:20:35.770Z,98056.16
2022-10-23T09:23:08.395Z,98053.56
2022-10-23T09:25:40.072Z,98064.28
2022-10-23T09:28:20.845Z,98063.50
2022-10-23T09:30:52.047Z,98061.50
2022-10-23T09:33:23.558Z,98060.56
2022-10-23T09:35:59.026Z,98054.25
2022-10-23T09:38:33.096Z,98051.38
2022-10-23T09:41:07.779Z,98050.78
2022-10-23T09:43:41.770Z,98050.34
2022-10-23T09:46:12.091Z,98044.66
2022-10-23T09:48:43.356Z,98042.09
2022-10-23T09:51:20.213Z,98040.78
2022-10-23T09:53:54.941Z,98040.19
2022-10-23T09:56:29.968Z,98034.78
2022-10-23T09:59:06.246Z,98024.59
2022-10-23T10:01:37.600Z,98022.59
2022-10-23T10:04:07.027Z,98020.91
2022-10-23T10:06:36.281Z,98018.41
2022-10-23T10:09:09.807Z,98018.31
2022-10-23T10:11:43.453Z,98014.31
2022-10-23T10:14:45.147Z,98019.31
2022-10-23T10:17:21.479Z,98010.91
2022-10-23T10:20:08.570Z,98006.41
2022-10-23T10:22:42.994Z,98008.94
2022-10-23T10:25:21.031Z,98011.63
2022-10-23T10:27:57.955Z,98005.91
2022-10-23T10:30:34.919Z,98001.22
2022-10-23T10:33:09.043Z,98001.31
2022-10-23T10:35:45.425Z,98003.28
2022-10-23T10:38:33.831Z,97999.38
2022-10-23T10:41:23.605Z,97988.34
2022-10-23T10:44:02.733Z,97973.94
2022-10-23T10:46:38.235Z,97978.56
2022-10-23T10:49:14.177Z,97981.38
2022-10-23T10:51:48.492Z,97969.34
2022-10-23T10:54:28.282Z,97965.16
2022-10-23T10:57:00.111Z,97962.16
2022-10-23T10:59:31.890Z,97959.88
2022-10-23T11:02:18.142Z,97959.88
2022-10-23T11:04:51.381Z,97964.97
2022-10-23T11:07:24.128Z,97957.78
2022-10-23T11:09:54.222Z,97950.50
2022-10-23T11:12:25.589Z,97954.47
2022-10-23T11:14:55.510Z,97947.91
2022-10-23T11:17:52.809Z,97940.28
2022-10-23T11:20:42.290Z,97930.41
2022-10-23T11:23:35.986Z,97921.19
2022-10-23T11:26:19.744Z,97909.69
2022-10-23T11:29:05.375Z,97914.97
2022-10-23T11:31:41.700Z,97921.34
2022-10-23T11:34:43.599Z,97912.91
2022-10-23T11:37:18.230Z,97897.28
2022-10-23T11:40:04.608Z,97902.75
2022-10-23T11:42:59.782Z,97892.03
2022-10-23T11:45:34.263Z,97887.97
2022-10-23T11:48:05.531Z,97889.50
2022-10-23T11:50:52.260Z,97897.56
2022-10-23T11:53:39.118Z,97890.56
2022-10-23T11:56:26.667Z,97897.31
2022-10-23T11:58:58.701Z,97900.03
2022-10-23T12:01:34.903Z,97885.47
2022-10-23T12:04:08.284Z,97896.09
2022-10-23T12:06:43.143Z,97902.59
2022-10-23T12:09:26.980Z,97901.44
2022-10-23T12:12:16.165Z,97892.50
2022-10-23T12:14:47.591Z,97879.34
2022-10-23T12:17:32.979Z,97868.38
2022-10-23T12:20:24.333Z,97864.28
2022-10-23T12:23:04.615Z,97853.53
2022-10-23T12:25:39.101Z,97843.97
2022-10-23T12:28:13.323Z,97839.91
2022-10-23T12:30:45.756Z,97838.59
2022-10-23T12:33:21.828Z,97841.19
2022-10-23T12:36:34.755Z,97831.78
2022-10-23T12:39:31.621Z,97818.09
2022-10-23T12:42:01.647Z,97818.97
2022-10-23T12:44:31.698Z,97821.63
2022-10-23T12:47:03.046Z,97805.16
2022-10-23T12:49:35.557Z,97816.16
2022-10-23T12:52:08.122Z,97815.19
2022-10-23T12:54:42.231Z,97806.47
2022-10-23T12:57:22.330Z,97798.53
2022-10-23T12:59:52.844Z,97789.66
2022-10-23T13:02:27.223Z,97798.41
2022-10-23T13:04:58.978Z,97799.84
2022-10-23T13:07:32.693Z,97789.41
2022-10-23T13:10:04.472Z,97789.06
2022-10-23T13:12:37.036Z,97784.25
2022-10-23T13:15:18.223Z,97788.03
2022-10-23T13:18:02.374Z,97794.84
2022-10-23T13:20:39.740Z,97788.28
2022-10-23T13:23:19.357Z,97784.25
2022-10-23T13:26:00.320Z,97781.84
2022-10-23T13:28:35.474Z,97776.50
2022-10-23T13:31:27.020Z,97776.72
2022-10-23T13:34:24.241Z,97766.56
2022-10-23T13:37:02.134Z,97767.22
2022-10-23T13:39:37.230Z,97769.97
2022-10-23T13:45:51.625Z,97767.22
2022-10-23T13:48:24.644Z,97770.16
2022-10-23T13:50:54.412Z,97757.03
2022-10-23T13:53:23.841Z,97758.78
2022-10-23T13:55:57.783Z,97762.88
2022-10-23T13:58:29.450Z,97758.38
2022-10-23T14:00:59.792Z,97760.19
2022-10-23T14:03:34.329Z,97755.28
2022-10-23T14:15:43.658Z,97759.13
2022-10-23T14:18:29.432Z,97749.44
2022-10-23T15:12:26.685Z,97725.59
2022-10-23T15:15:28.926Z,97723.06
2022-10-23T15:17:58.301Z,97715.88
2022-10-23T15:20:27.809Z,97715.66
2022-10-23T15:22:57.460Z,97719.28
2022-10-23T15:25:29.404Z,97721.78
2022-10-23T15:28:00.393Z,97718.81
2022-10-23T15:30:29.760Z,97715.13
2022-10-23T15:36:30.299Z,97713.53
2022-10-23T15:39:00.294Z,97722.72
2022-10-23T15:41:35.771Z,97717.34
2022-10-23T15:44:08.432Z,97721.94
2022-10-23T15:46:37.948Z,97723.16
2022-10-23T15:49:08.512Z,97719.34
2022-10-23T15:51:38.358Z,97711.16
2022-10-23T15:54:08.094Z,97715.56
2022-10-23T15:56:53.033Z,97717.13
2022-10-23T15:59:25.449Z,97715.78
2022-10-23T16:01:55.792Z,97714.56
2022-10-23T16:04:25.697Z,97721.31
2022-10-23T16:06:55.321Z,97721.06
2022-10-23T16:09:24.248Z,97732.13
2022-10-23T16:11:53.158Z,97732.19
2022-10-23T16:14:24.002Z,97723.88
2022-10-23T16:16:53.008Z,97721.66
2022-10-23T16:19:22.416Z,97722.19
2022-10-23T16:21:51.711Z,97718.78
2022-10-23T16:24:21.312Z,97717.38
2022-10-23T16:26:53.385Z,97723.56
2022-10-23T16:29:25.652Z,97725.44
2022-10-23T16:31:56.524Z,97717.78
2022-10-23T16:34:26.210Z,97722.66
2022-10-23T16:36:55.777Z,97730.41
2022-10-23T16:39:25.552Z,97727.34
2022-10-23T16:41:55.419Z,97733.13
2022-10-23T16:44:28.506Z,97737.22
2022-10-23T16:46:58.276Z,97743.69
2022-10-23T16:49:29.943Z,97740.16
2022-10-23T16:51:59.738Z,97739.97
2022-10-23T16:54:30.567Z,97738.84
2022-10-23T16:57:00.096Z,97746.44
2022-10-23T16:59:31.102Z,97747.34
2022-10-23T17:02:00.575Z,97745.91
2022-10-23T17:04:30.031Z,97755.13
2022-10-23T17:06:59.345Z,97756.22
2022-10-23T17:09:31.296Z,97758.53
2022-10-23T17:12:03.226Z,97769.00
2022-10-23T17:14:34.627Z,97769.59
2022-10-23T17:17:08.190Z,97768.22
2022-10-23T17:19:45.159Z,97761.59
2022-10-23T17:22:16.517Z,97767.72
2022-10-23T17:24:48.882Z,97760.91
2022-10-23T17:27:21.035Z,97758.00
2022-10-23T17:29:51.914Z,97757.41
2022-10-23T17:34:55.724Z,97757.03
2022-10-23T17:37:25.389Z,97750.75
2022-10-23T17:39:54.824Z,97747.25
2022-10-23T17:42:25.042Z,97741.41
2022-10-23T17:44:56.164Z,97730.41
2022-10-23T17:47:25.665Z,97741.94
2022-10-23T17:49:55.214Z,97749.06
2022-10-23T17:52:24.594Z,97757.09
2022-10-23T17:54:54.997Z,97754.53
2022-10-23T17:57:25.108Z,97754.97
2022-10-23T17:59:56.394Z,97753.72
2022-10-23T18:02:26.228Z,97760.38
2022-10-23T18:04:55.903Z,97755.72
2022-10-23T18:07:26.724Z,97760.19
2022-10-23T18:09:56.055Z,97754.97
2022-10-23T18:12:25.270Z,97758.78
2022-10-23T18:14:56.783Z,97761.34
2022-10-23T18:17:26.117Z,97758.13
2022-10-23T18:20:00.930Z,97769.25
2022-10-23T18:22:33.243Z,97757.88
2022-10-23T18:25:04.346Z,97764.31
2022-10-23T18:27:34.379Z,97762.34
2022-10-23T18:30:06.076Z,97762.16
2022-10-23T18:32:35.860Z,97758.34
2022-10-23T18:35:05.810Z,97753.84
2022-10-23T18:37:39.005Z,97752.03
2022-10-23T18:40:11.310Z,97756.06
2022-10-23T18:42:41.316Z,97748.47
2022-10-23T18:45:15.336Z,97740.19
2022-10-23T18:47:47.910Z,97733.53
2022-10-23T18:50:17.707Z,97726.69
2022-10-23T18:52:47.631Z,97743.09
2022-10-23T18:55:17.440Z,97730.25
2022-10-23T18:57:47.186Z,97731.38
2022-10-23T19:00:20.903Z,97726.53
2022-10-23T19:02:52.352Z,97724.31
2022-10-23T19:05:22.547Z,97723.00
2022-10-23T19:07:55.892Z,97715.69
2022-10-23T19:10:28.389Z,97720.78
2022-10-23T19:12:57.644Z,97715.25
2022-10-23T19:15:29.161Z,97728.16
2022-10-23T19:17:59.383Z,97726.22
2022-10-23T19:20:30.343Z,97723.16
2022-10-23T19:23:01.634Z,97706.75
2022-10-23T19:25:33.333Z,97711.06
2022-10-23T19:28:04.081Z,97716.22
2022-10-23T19:30:35.219Z,97710.78
2022-10-23T19:33:05.430Z,97710.94
2022-10-23T19:35:35.149Z,97710.16
2022-10-23T19:38:05.313Z,97720.97
2022-10-23T19:40:34.684Z,97718.41
2022-10-23T19:43:03.931Z,97718.94
2022-10-23T19:45:35.027Z,97716.59
2022-10-23T19:48:04.356Z,97720.78
2022-10-23T19:50:33.863Z,97711.78
2022-10-23T19:53:03.232Z,97714.28
2022-10-23T19:55:32.568Z,97712.53
2022-10-23T19:58:02.334Z,97712.63
2022-10-23T20:00:33.343Z,97718.75
2022-10-23T20:03:03.542Z,97708.84
2022-10-23T20:05:33.586Z,97707.53
2022-10-23T20:08:03.317Z,97709.59
2022-10-23T20:10:33.025Z,97702.00
2022-10-23T20:13:18.585Z,97706.06
2022-10-23T20:15:50.670Z,97705.53
2022-10-23T20:18:20.008Z,97699.34
2022-10-23T20:20:49.466Z,97703.09
2022-10-23T20:23:18.725Z,97696.69
2022-10-23T20:25:48.216Z,97703.69
2022-10-23T20:28:17.545Z,97703.97
2022-10-23T20:30:47.258Z,97707.81
2022-10-23T20:33:17.948Z,97702.91
2022-10-23T20:35:47.698Z,97697.13
2022-10-23T20:38:17.462Z,97702.72
2022-10-23T20:40:47.117Z,97708.16
2022-10-23T20:43:17.018Z,97712.59
2022-10-23T20:45:46.359Z,97710.44
2022-10-23T20:48:20.903Z,97725.22
2022-10-23T20:50:49.991Z,97722.16
2022-10-23T20:53:19.525Z,97716.00
2022-10-23T20:55:48.421Z,97724.75
2022-10-23T20:58:17.512Z,97715.03
2022-10-23T21:00:46.951Z,97721.09
2022-10-23T21:03:18.055Z,97721.03
2022-10-23T21:05:47.357Z,97724.31
2022-10-23T21:08:16.734Z,97719.66
2022-10-23T21:10:47.632Z,97715.75
2022-10-23T21:13:16.684Z,97712.44
2022-10-23T21:15:46.205Z,97706.88
2022-10-23T21:18:26.403Z,97699.78
2022-10-23T21:21:02.910Z,97698.72
2022-10-23T21:23:32.224Z,97704.63
2022-10-23T21:26:04.762Z,97701.03
2022-10-23T21:28:37.001Z,97700.59
2022-10-23T21:31:07.622Z,97700.41
2022-10-23T21:33:39.302Z,97703.13
2022-10-23T21:36:13.907Z,97706.50
2022-10-23T21:38:43.831Z,97695.09
2022-10-23T21:41:15.547Z,97707.88
2022-10-23T21:43:45.313Z,97707.09
2022-10-23T21:46:16.158Z,97698.97
2022-10-23T21:48:48.437Z,97692.38
2022-10-23T21:51:22.357Z,97691.63
2022-10-23T21:53:51.965Z,97697.25
2022-10-23T21:56:30.303Z,97692.88
2022-10-23T21:59:00.826Z,97696.56
2022-10-23T22:01:30.694Z,97689.59
2022-10-23T22:04:02.322Z,97689.44
2022-10-23T22:06:32.587Z,97694.19
2022-10-23T22:09:02.457Z,97690.13
2022-10-23T22:11:31.682Z,97690.28
2022-10-23T22:14:01.718Z,97690.06
2022-10-23T22:16:30.786Z,97694.38
2022-10-23T22:19:01.747Z,97699.72
2022-10-23T22:21:32.377Z,97697.81
2022-10-23T22:26:38.308Z,97695.00
2022-10-23T22:29:09.305Z,97686.00
2022-10-23T22:31:39.114Z,97687.25
2022-10-23T22:34:25.154Z,97697.13
2022-10-23T22:37:02.166Z,97694.47
2022-10-23T22:39:31.544Z,97694.41
2022-10-23T22:42:00.757Z,97696.19
2022-10-23T22:44:29.937Z,97693.00
2022-10-23T22:46:58.918Z,97695.81
2022-10-23T22:49:29.889Z,97701.88
2022-10-23T22:51:59.381Z,97690.44
2022-10-23T22:54:30.519Z,97693.59
2022-10-23T22:57:00.063Z,97706.59
2022-10-23T22:59:29.358Z,97704.59
2022-10-23T23:01:58.896Z,97703.88
2022-10-23T23:04:38.743Z,97700.53
2022-10-23T23:07:09.836Z,97705.28
2022-10-23T23:09:40.107Z,97705.63
2022-10-23T23:12:10.868Z,97712.19
2022-10-23T23:14:40.657Z,97705.94
2022-10-23T23:17:11.010Z,97705.44
2022-10-23T23:19:41.876Z,97701.94
2022-10-23T23:22:11.730Z,97691.13
2022-10-23T23:24:41.147Z,97692.53
2022-10-23T23:27:11.078Z,97691.22
2022-10-23T23:29:40.522Z,97682.50
2022-10-23T23:32:09.626Z,97683.03
2022-10-23T23:34:40.612Z,97676.69
2022-10-23T23:37:10.077Z,97669.78
2022-10-23T23:39:39.443Z,97671.47
2022-10-23T23:42:08.874Z,97661.53
2022-10-23T23:44:45.799Z,97667.75
2022-10-23T23:50:01.899Z,97666.50
2022-10-23T23:52:31.412Z,97667.88
2022-10-23T23:55:01.533Z,97673.72
2022-10-23T23:57:31.099Z,97674.53
